Latest Coastal Weather Observations for Cape Flattery

IDQ60701

Issued at 8:41 am EST Thursday 5 March 2015 (issued every 10 minutes, with the page automatically refreshed every 10 minutes)

About coastal observations | Map of coastal stations | Coastal observations for QLD | Marine services | Other Formats
Station Details ID: 031213 Name: CAPE FLATTERY Lat: -14.97 Lon: 145.31 Height: 18.5 m
Data from the previous 72 hours. | See also: Recent months at Cape Flattery
Date/Time
EST
Temp

°C
Wind Pressure Rain
since 9am
mm
Weather Cloud Vis
km
Sea
Height
m
Swell
Dir
 
Speed
knots
Gust
knots
hPa Trend Height
m
Period
s
Dir
05/08:30am 28.7 SSE 11 14 1009.8 - 0.2 - - - - - - -
05/08:00am 28.2 SSE 10 14 1009.6 - 0.2 - - - - - - -
05/07:30am 27.9 SSE 11 16 1009.2 - 0.2 - - - - - - -
05/07:00am 27.8 SSE 11 15 1008.6 - 0.2 - - - - - - -
05/06:30am 27.2 SE 11 14 1008.3 - 0.2 - - - - - - -
05/06:00am 27.0 SE 10 14 1008.2 - 0.2 - - - - - - -
05/05:30am 27.3 SE 9 14 1007.9 - 0.2 - - - - - - -
05/05:00am 26.8 SE 8 10 1007.6 - 0.2 - - - - - - -
05/04:30am 26.7 SE 8 10 1007.4 - 0.2 - - - - - - -
05/04:00am 26.6 SE 9 11 1007.1 - 0.2 - - - - - - -
05/03:30am 26.2 SE 7 9 1007.2 - 0.2 - - - - - - -
05/03:00am 25.9 ESE 5 6 1007.6 - 0.2 - - - - - - -
05/02:30am 26.2 ESE 4 5 1008.0 - 0.2 - - - - - - -
05/02:00am 26.6 ESE 5 6 1008.3 - 0.2 - - - - - - -
05/01:30am 26.7 ESE 4 5 1008.6 - 0.2 - - - - - - -
05/01:00am 26.8 ESE 5 6 1008.7 - 0.2 - - - - - - -
05/12:30am 27.1 SE 7 9 1009.0 - 0.2 - - - - - - -
05/12:00am 27.1 SE 7 8 1009.4 - 0.2 - - - - - - -
 
Date/Time
EST
Temp

°C
Wind Pressure Rain
since 9am
mm
Weather Cloud Vis
km
Sea
Height
m
Swell
Dir
 
Speed
knots
Gust
knots
hPa Trend Height
m
Period
s
Dir
04/11:30pm 26.9 SE 7 9 1009.6 - 0.2 - - - - - - -
04/11:00pm 26.6 SE 5 7 1009.7 - 0.2 - - - - - - -
04/10:30pm 26.6 SE 7 8 1009.9 - 0.2 - - - - - - -
04/10:00pm 26.5 ESE 7 10 1009.8 - 0.2 - - - - - - -
04/09:30pm 26.5 ESE 9 11 1009.7 - 0.2 - - - - - - -
04/09:00pm 26.6 ESE 9 14 1009.5 - 0.2 - - - - - - -
04/08:30pm 26.8 ESE 11 17 1009.3 - 0.2 - - - - - - -
04/08:00pm 26.9 SE 12 18 1009.0 - 0.2 - - - - - - -
04/07:30pm 26.7 SSE 13 17 1008.6 - 0.2 - - - - - - -
04/07:00pm 27.0 SE 13 15 1008.3 - 0.2 - - - - - - -
04/06:30pm 27.1 SE 13 18 1008.2 - 0.2 - - - - - - -
04/06:00pm 27.0 SE 13 17 1008.1 - 0.2 - - - - - - -
04/05:30pm 26.9 ESE 11 15 1007.7 - 0.2 - - - - - - -
04/05:00pm 27.0 ESE 13 19 1007.7 - 0.2 - - - - - - -
04/04:30pm 27.5 SE 16 22 1007.7 - 0.2 - - - - - - -
04/04:00pm 28.4 SSE 11 16 1007.5 - 0.2 - - - - - - -
04/03:30pm 28.7 SE 13 19 1007.5 - 0.2 - - - - - - -
04/03:00pm 29.0 ESE 10 15 1007.6 - 0.2 - - - - - - -
04/02:30pm 29.8 ESE 11 15 1007.8 - 0.2 - - - - - - -
04/02:00pm 30.2 SE 11 15 1008.2 - 0.2 - - - - - - -
04/01:30pm 30.5 SE 11 14 1008.4 - 0.2 - - - - - - -
04/01:00pm 30.2 SE 13 17 1008.8 - 0.2 - - - - - - -
04/12:30pm 28.8 SE 14 19 1009.4 - 0.2 - - - - - - -
04/12:00pm 29.5 E 9 13 1009.8 - 0.2 - - - - - - -
04/11:30am 28.9 E 12 17 1009.9 - 0.2 - - - - - - -
04/11:00am 29.4 ESE 14 21 1010.1 - 0.2 - - - - - - -
04/10:30am 30.5 SE 10 14 1010.0 - 0.2 - - - - - - -
04/10:00am 29.5 SE 11 14 1010.0 - 0.2 - - - - - - -
04/09:30am 29.4 ESE 13 18 1009.9 - 0.2 - - - - - - -
04/09:00am 29.2 SE 13 17 1009.6 - 10.6 - - - - - - -
04/08:30am 28.9 ESE 11 15 1009.3 - 10.6 - - - - - - -
04/08:00am 27.9 SE 10 16 1009.0 - 10.6 - - - - - - -
04/07:30am 27.4 ESE 9 12 1008.9 - 10.6 - - - - - - -
04/07:00am 25.9 SE 10 14 1008.6 - 10.6 - - - - - - -
04/06:30am 25.9 SE 14 18 1008.4 - 10.6 - - - - - - -
04/06:00am 25.6 SE 13 17 1008.2 - 10.6 - - - - - - -
04/05:30am 25.1 SE 11 15 1007.9 - 10.6 - - - - - - -
04/05:00am 24.2 ESE 7 10 1007.9 - 10.6 - - - - - - -
04/04:30am 24.3 SE 17 25 1007.9 - 9.0 - - - - - - -
04/04:23am 25.6 SE 15 30 1007.7 - 5.6 - - - - - - -
04/04:20am 25.8 SE 13 30 1007.7 - 5.6 - - - - - - -
04/04:00am 25.9 SE 13 17 1007.4 - 5.6 - - - - - - -
04/03:30am 25.1 SE 8 13 1007.5 - 5.6 - - - - - - -
04/03:04am 24.5 SE 15 25 1008.0 - 5.6 - - - - - - -
04/03:00am 24.8 SE 17 25 1008.2 - 4.4 Rain - - - - - -
04/02:32am 27.1 SE 15 26 1007.7 - 2.6 - - - - - - -
04/02:30am 27.3 SE 13 25 1007.7 - 2.6 - - - - - - -
04/02:01am 25.2 ESE 15 25 1008.1 - 2.6 - - - - - - -
04/02:00am 25.3 ESE 16 25 1008.1 - 2.6 - - - - - - -
04/01:30am 27.6 SE 15 21 1008.4 - 2.6 - - - - - - -
04/01:00am 27.6 SE 13 18 1008.7 - 2.6 - - - - - - -
04/12:30am 26.3 SSE 12 16 1009.3 - 2.6 - - - - - - -
04/12:00am 26.8 SE 11 15 1009.7 - 2.6 - - - - - - -
 
Date/Time
EST
Temp

°C
Wind Pressure Rain
since 9am
mm
Weather Cloud Vis
km
Sea
Height
m
Swell
Dir
 
Speed
knots
Gust
knots
hPa Trend Height
m
Period
s
Dir
03/11:30pm 26.2 SE 13 18 1010.0 - 2.6 - - - - - - -
03/11:00pm 26.7 SE 14 17 1010.1 - 2.6 - - - - - - -
03/10:46pm 26.4 SE 15 25 1010.1 - 2.6 - - - - - - -
03/10:30pm 27.1 SE 14 20 1009.9 - 2.6 - - - - - - -
03/10:00pm 26.7 SE 13 18 1009.7 - 2.6 - - - - - - -
03/09:30pm 26.1 SSE 12 15 1009.5 - 2.6 - - - - - - -
03/09:00pm 24.6 SE 15 28 1009.5 - 2.6 - - - - - - -
03/08:54pm 25.6 SE 14 28 1009.6 - 1.0 - - - - - - -
03/08:30pm 27.2 SE 13 18 1009.4 - 0.2 - - - - - - -
03/08:00pm 26.9 SE 15 20 1009.1 - 0.2 - - - - - - -
03/07:30pm 25.4 ESE 10 15 1008.8 - 0.2 - - - - - - -
03/07:00pm 26.9 SSE 18 25 1008.5 - 0.0 - - - - - - -
03/06:45pm 27.8 SE 15 25 1008.4 - 0.0 - - - - - - -
03/06:30pm 28.3 SE 13 18 1008.1 - 0.0 - - - - - - -
03/06:00pm 29.2 SE 15 20 1007.8 - 0.0 - - - - - - -
03/05:30pm 29.0 SE 15 20 1007.5 - 0.0 - - - - - - -
03/05:00pm 29.2 SE 16 21 1007.3 - 0.0 - - - - - - -
03/04:30pm 29.0 SE 15 19 1007.3 - 0.0 - - - - - - -
03/04:00pm 29.0 SE 13 17 1007.5 - 0.0 - - - - - - -
03/03:30pm 30.1 SE 13 19 1007.3 - 0.0 - - - - - - -
03/03:00pm 30.5 SSE 15 20 1007.4 - 0.0 - - - - - - -
03/02:30pm 30.9 SE 16 21 1007.6 - 0.0 - - - - - - -
03/02:00pm 31.6 SE 16 22 1007.8 - 0.0 - - - - - - -
03/01:30pm 31.2 SE 14 20 1008.2 - 0.0 - - - - - - -
03/01:00pm 31.7 SE 15 18 1008.4 - 0.0 - - - - - - -
03/12:30pm 31.7 SE 14 18 1008.9 - 0.0 - - - - - - -
03/12:00pm 31.3 SE 13 18 1009.5 - 0.0 - - - - - - -
03/11:30am 31.0 SE 13 17 1009.8 - 0.0 - - - - - - -
03/11:00am 31.4 SE 13 17 1010.0 - 0.0 - - - - - - -
03/10:30am 31.1 ESE 12 16 1010.0 - 0.0 - - - - - - -
03/10:00am 31.3 SE 12 17 1010.1 - 0.0 - - - - - - -
03/09:30am 30.8 SE 12 17 1010.2 - 0.0 - - - - - - -
03/09:00am 29.5 SE 11 17 1010.4 - 0.0 - - - - - - -
03/08:30am 29.3 ESE 9 13 1010.1 - 0.0 - - - - - - -
03/08:00am 29.5 SE 9 11 1009.8 - 0.0 - - - - - - -
03/07:30am 28.8 SE 10 14 1009.5 - 0.0 - - - - - - -
03/07:00am 27.8 SE 9 12 1009.2 - 0.0 - - - - - - -
03/06:30am 26.9 ESE 6 8 1008.6 - 0.0 - - - - - - -
03/06:00am 26.5 ESE 5 8 1008.2 - 0.0 - - - - - - -
03/05:30am 26.9 SE 8 9 1008.0 - 0.0 - - - - - - -
03/05:00am 27.0 SE 7 9 1007.6 - 0.0 - - - - - - -
03/04:30am 27.0 ESE 7 9 1007.4 - 0.0 - - - - - - -
03/04:00am 27.1 ESE 7 9 1007.2 - 0.0 - - - - - - -
03/03:30am 26.7 ESE 7 10 1007.4 - 0.0 - - - - - - -
03/03:00am 27.0 ESE 7 9 1007.6 - 0.0 - - - - - - -
03/02:30am 27.2 ESE 7 10 1007.8 - 0.0 - - - - - - -
03/02:00am 27.5 SE 6 9 1008.2 - 0.0 - - - - - - -
03/01:30am 27.3 SE 7 9 1008.5 - 0.0 - - - - - - -
03/01:00am 27.2 SE 7 8 1008.7 - 0.0 - - - - - - -
03/12:30am 26.9 ESE 7 9 1009.0 - 0.0 - - - - - - -
03/12:00am 26.8 ESE 6 8 1008.9 - 0.0 - - - - - - -
 
Date/Time
EST
Temp

°C
Wind Pressure Rain
since 9am
mm
Weather Cloud Vis
km
Sea
Height
m
Swell
Dir
 
Speed
knots
Gust
knots
hPa Trend Height
m
Period
s
Dir
02/11:30pm 26.7 ESE 7 9 1009.1 - 0.0 - - - - - - -
02/11:00pm 26.6 ESE 6 9 1009.3 - 0.0 - - - - - - -
02/10:30pm 25.9 E 5 7 1009.2 - 0.0 - - - - - - -
02/10:00pm 25.8 E 5 6 1009.2 - 0.0 - - - - - - -
02/09:30pm 26.1 E 5 7 1009.2 - 0.0 - - - - - - -
02/09:00pm 26.5 ESE 6 7 1009.0 - 0.0 - - - - - - -
02/08:30pm 25.9 E 6 8 1008.6 - 0.0 - - - - - - -
02/08:00pm 25.9 E 6 7 1008.1 - 0.0 - - - - - - -
02/07:30pm 26.0 E 6 8 1007.6 - 0.0 - - - - - - -
02/07:00pm 26.7 E 5 6 1007.2 - 0.0 - - - - - - -
02/06:30pm 28.0 E 5 6 1007.0 - 0.0 - - - - - - -
02/06:00pm 29.1 ESE 8 12 1006.9 - 0.0 - - - - - - -
02/05:30pm 29.6 E 7 11 1006.6 - 0.0 - - - - - - -
02/05:00pm 30.0 E 8 11 1006.3 - 0.0 - - - - - - -
02/04:30pm 30.2 E 8 12 1006.2 - 0.0 - - - - - - -
02/04:00pm 30.7 E 8 11 1006.1 - 0.0 - - - - - - -
02/03:30pm 31.4 ESE 9 13 1006.4 - 0.0 - - - - - - -
02/03:00pm 31.2 E 9 14 1006.6 - 0.0 - - - - - - -
02/02:30pm 31.9 E 7 12 1006.5 - 0.0 - - - - - - -
02/02:00pm 31.7 ESE 8 14 1006.9 - 0.0 - - - - - - -
02/01:30pm 31.7 SE 10 14 1007.3 - 0.0 - - - - - - -
02/01:00pm 32.1 ESE 8 12 1007.8 - 0.0 - - - - - - -
02/12:30pm 31.8 SE 9 13 1008.1 - 0.0 - - - - - - -
02/12:00pm 31.2 SE 9 13 1008.6 - 0.0 - - - - - - -
02/11:30am 31.4 SE 9 13 1008.9 - 0.0 - - - - - - -
02/11:00am 30.6 SE 7 11 1009.2 - 0.0 - - - - - - -
02/10:30am 29.6 SSE 8 10 1009.5 - 0.0 - - - - - - -
02/10:00am 29.8 SE 7 10 1009.6 - 0.0 - - - - - - -
02/09:30am 30.1 SE 7 11 1009.5 - 0.0 - - - - - - -
02/09:00am 28.9 SE 7 10 1009.3 - 0.0 - - - - - - -

Other Formats:

Comma delimited format used in spreadsheet applications
http://www.bom.gov.au/fwo/IDQ60701/IDQ60701.94188.axf

JavaScript Object Notation format (JSON) in row-major order
http://www.bom.gov.au/fwo/IDQ60701/IDQ60701.94188.json